sensor_id;sensor_type;location;lat;lon;timestamp;P1;durP1;ratioP1;P2;durP2;ratioP2
3267;SDS011;1646;52.450;13.326;2022-07-09T00:03:05;10.30;;;2.10;;
3267;SDS011;1646;52.450;13.326;2022-07-09T00:08:03;4.23;;;1.97;;
3267;SDS011;1646;52.450;13.326;2022-07-09T00:13:02;4.13;;;2.13;;
3267;SDS011;1646;52.450;13.326;2022-07-09T00:18:00;4.23;;;1.77;;
3267;SDS011;1646;52.450;13.326;2022-07-09T00:22:59;7.17;;;2.63;;
3267;SDS011;1646;52.450;13.326;2022-07-09T00:27:57;13.37;;;2.07;;
3267;SDS011;1646;52.450;13.326;2022-07-09T00:32:56;5.33;;;2.07;;
3267;SDS011;1646;52.450;13.326;2022-07-09T00:37:54;3.20;;;2.40;;
3267;SDS011;1646;52.450;13.326;2022-07-09T00:42:53;5.47;;;2.00;;
3267;SDS011;1646;52.450;13.326;2022-07-09T00:47:51;10.20;;;2.40;;
3267;SDS011;1646;52.450;13.326;2022-07-09T00:52:49;6.13;;;2.70;;
3267;SDS011;1646;52.450;13.326;2022-07-09T00:57:47;12.87;;;2.90;;
3267;SDS011;1646;52.450;13.326;2022-07-09T01:02:47;6.50;;;2.47;;
3267;SDS011;1646;52.450;13.326;2022-07-09T01:07:47;5.17;;;2.00;;
3267;SDS011;1646;52.450;13.326;2022-07-09T01:12:45;4.70;;;2.57;;
3267;SDS011;1646;52.450;13.326;2022-07-09T01:17:43;4.30;;;2.30;;
3267;SDS011;1646;52.450;13.326;2022-07-09T01:22:42;15.40;;;2.53;;
3267;SDS011;1646;52.450;13.326;2022-07-09T01:27:40;7.07;;;2.47;;
3267;SDS011;1646;52.450;13.326;2022-07-09T01:32:38;4.67;;;2.40;;
3267;SDS011;1646;52.450;13.326;2022-07-09T01:37:36;7.83;;;2.70;;
3267;SDS011;1646;52.450;13.326;2022-07-09T01:42:36;5.03;;;2.60;;
3267;SDS011;1646;52.450;13.326;2022-07-09T01:47:34;7.37;;;2.30;;
3267;SDS011;1646;52.450;13.326;2022-07-09T01:52:33;4.77;;;2.70;;
3267;SDS011;1646;52.450;13.326;2022-07-09T01:57:31;7.70;;;3.20;;
3267;SDS011;1646;52.450;13.326;2022-07-09T02:02:31;5.17;;;3.50;;
3267;SDS011;1646;52.450;13.326;2022-07-09T02:07:29;14.03;;;3.27;;
3267;SDS011;1646;52.450;13.326;2022-07-09T02:12:27;10.53;;;3.00;;
3267;SDS011;1646;52.450;13.326;2022-07-09T02:17:25;9.53;;;2.93;;
3267;SDS011;1646;52.450;13.326;2022-07-09T02:22:24;8.43;;;3.17;;
3267;SDS011;1646;52.450;13.326;2022-07-09T02:27:23;12.53;;;3.70;;
3267;SDS011;1646;52.450;13.326;2022-07-09T02:32:21;6.23;;;3.90;;
3267;SDS011;1646;52.450;13.326;2022-07-09T02:37:19;12.47;;;4.30;;
3267;SDS011;1646;52.450;13.326;2022-07-09T02:42:19;15.47;;;4.70;;
3267;SDS011;1646;52.450;13.326;2022-07-09T02:47:17;6.50;;;3.90;;
3267;SDS011;1646;52.450;13.326;2022-07-09T02:52:15;12.77;;;4.33;;
3267;SDS011;1646;52.450;13.326;2022-07-09T02:57:13;7.90;;;4.87;;
3267;SDS011;1646;52.450;13.326;2022-07-09T03:02:13;8.73;;;4.30;;
3267;SDS011;1646;52.450;13.326;2022-07-09T03:07:11;9.83;;;4.57;;
3267;SDS011;1646;52.450;13.326;2022-07-09T03:12:10;6.33;;;3.83;;
3267;SDS011;1646;52.450;13.326;2022-07-09T03:17:08;8.90;;;4.07;;
3267;SDS011;1646;52.450;13.326;2022-07-09T03:22:07;6.27;;;4.00;;
3267;SDS011;1646;52.450;13.326;2022-07-09T03:27:06;11.17;;;4.47;;
3267;SDS011;1646;52.450;13.326;2022-07-09T03:32:04;8.57;;;4.00;;
3267;SDS011;1646;52.450;13.326;2022-07-09T03:37:04;8.67;;;4.43;;
3267;SDS011;1646;52.450;13.326;2022-07-09T03:42:03;16.33;;;4.10;;
3267;SDS011;1646;52.450;13.326;2022-07-09T03:47:03;5.90;;;4.00;;
3267;SDS011;1646;52.450;13.326;2022-07-09T03:52:01;8.53;;;4.10;;
3267;SDS011;1646;52.450;13.326;2022-07-09T03:57:15;5.60;;;3.30;;
3267;SDS011;1646;52.450;13.326;2022-07-09T04:02:14;7.77;;;3.30;;
3267;SDS011;1646;52.450;13.326;2022-07-09T04:07:12;11.60;;;3.40;;
3267;SDS011;1646;52.450;13.326;2022-07-09T04:12:10;7.87;;;3.33;;
3267;SDS011;1646;52.450;13.326;2022-07-09T04:17:09;7.20;;;2.80;;
3267;SDS011;1646;52.450;13.326;2022-07-09T04:22:07;8.33;;;3.37;;
3267;SDS011;1646;52.450;13.326;2022-07-09T04:27:05;9.47;;;4.40;;
3267;SDS011;1646;52.450;13.326;2022-07-09T04:32:04;8.90;;;3.60;;
3267;SDS011;1646;52.450;13.326;2022-07-09T04:37:04;3.43;;;2.70;;
3267;SDS011;1646;52.450;13.326;2022-07-09T04:42:03;7.63;;;2.63;;
3267;SDS011;1646;52.450;13.326;2022-07-09T04:47:02;6.00;;;2.57;;
3267;SDS011;1646;52.450;13.326;2022-07-09T04:52:00;9.30;;;3.03;;
3267;SDS011;1646;52.450;13.326;2022-07-09T04:56:59;3.77;;;3.20;;
3267;SDS011;1646;52.450;13.326;2022-07-09T05:01:57;5.33;;;3.23;;
3267;SDS011;1646;52.450;13.326;2022-07-09T05:06:56;8.90;;;3.20;;
3267;SDS011;1646;52.450;13.326;2022-07-09T05:11:54;6.23;;;2.97;;
3267;SDS011;1646;52.450;13.326;2022-07-09T05:16:53;5.07;;;2.87;;
3267;SDS011;1646;52.450;13.326;2022-07-09T05:21:51;4.70;;;3.23;;
3267;SDS011;1646;52.450;13.326;2022-07-09T05:26:50;6.70;;;3.40;;
3267;SDS011;1646;52.450;13.326;2022-07-09T05:31:48;6.10;;;3.07;;
3267;SDS011;1646;52.450;13.326;2022-07-09T05:36:47;7.63;;;3.27;;
3267;SDS011;1646;52.450;13.326;2022-07-09T05:41:48;5.33;;;2.90;;
3267;SDS011;1646;52.450;13.326;2022-07-09T05:46:46;6.93;;;4.03;;
3267;SDS011;1646;52.450;13.326;2022-07-09T05:51:44;7.20;;;3.17;;
3267;SDS011;1646;52.450;13.326;2022-07-09T05:56:43;9.60;;;3.50;;
3267;SDS011;1646;52.450;13.326;2022-07-09T06:01:41;7.70;;;3.90;;
3267;SDS011;1646;52.450;13.326;2022-07-09T06:06:39;6.93;;;2.93;;
3267;SDS011;1646;52.450;13.326;2022-07-09T06:11:37;10.00;;;3.40;;
3267;SDS011;1646;52.450;13.326;2022-07-09T06:16:36;4.93;;;2.97;;
3267;SDS011;1646;52.450;13.326;2022-07-09T06:21:35;5.33;;;2.90;;
3267;SDS011;1646;52.450;13.326;2022-07-09T06:26:33;16.30;;;3.23;;
3267;SDS011;1646;52.450;13.326;2022-07-09T06:31:31;7.03;;;3.30;;
3267;SDS011;1646;52.450;13.326;2022-07-09T06:36:30;5.73;;;3.30;;
3267;SDS011;1646;52.450;13.326;2022-07-09T06:41:28;6.60;;;2.87;;
3267;SDS011;1646;52.450;13.326;2022-07-09T06:46:26;6.80;;;2.63;;
3267;SDS011;1646;52.450;13.326;2022-07-09T06:51:24;10.97;;;3.70;;
3267;SDS011;1646;52.450;13.326;2022-07-09T06:56:24;10.70;;;3.00;;
3267;SDS011;1646;52.450;13.326;2022-07-09T07:01:22;7.63;;;3.10;;
3267;SDS011;1646;52.450;13.326;2022-07-09T07:06:23;10.73;;;3.17;;
3267;SDS011;1646;52.450;13.326;2022-07-09T07:11:21;5.20;;;2.73;;
3267;SDS011;1646;52.450;13.326;2022-07-09T07:16:20;6.27;;;2.60;;
3267;SDS011;1646;52.450;13.326;2022-07-09T07:21:18;2.57;;;2.37;;
3267;SDS011;1646;52.450;13.326;2022-07-09T07:26:16;6.13;;;2.40;;
3267;SDS011;1646;52.450;13.326;2022-07-09T07:31:15;11.30;;;2.50;;
3267;SDS011;1646;52.450;13.326;2022-07-09T07:36:14;4.27;;;2.20;;
3267;SDS011;1646;52.450;13.326;2022-07-09T07:41:13;6.13;;;2.73;;
3267;SDS011;1646;52.450;13.326;2022-07-09T07:46:13;10.23;;;2.60;;
3267;SDS011;1646;52.450;13.326;2022-07-09T07:51:11;3.63;;;1.87;;
3267;SDS011;1646;52.450;13.326;2022-07-09T07:56:10;3.87;;;2.10;;
3267;SDS011;1646;52.450;13.326;2022-07-09T08:01:08;3.63;;;2.57;;
3267;SDS011;1646;52.450;13.326;2022-07-09T08:06:06;3.80;;;2.03;;
3267;SDS011;1646;52.450;13.326;2022-07-09T08:11:05;9.43;;;2.93;;
3267;SDS011;1646;52.450;13.326;2022-07-09T08:16:04;8.23;;;3.87;;
3267;SDS011;1646;52.450;13.326;2022-07-09T08:21:03;4.97;;;2.97;;
3267;SDS011;1646;52.450;13.326;2022-07-09T08:26:01;7.53;;;2.70;;
3267;SDS011;1646;52.450;13.326;2022-07-09T08:30:59;4.03;;;2.83;;
3267;SDS011;1646;52.450;13.326;2022-07-09T08:35:59;5.33;;;3.40;;
3267;SDS011;1646;52.450;13.326;2022-07-09T08:40:57;4.63;;;2.57;;
3267;SDS011;1646;52.450;13.326;2022-07-09T08:45:56;6.60;;;2.80;;
3267;SDS011;1646;52.450;13.326;2022-07-09T08:50:55;3.47;;;2.80;;
3267;SDS011;1646;52.450;13.326;2022-07-09T08:55:56;3.43;;;2.40;;
3267;SDS011;1646;52.450;13.326;2022-07-09T09:00:54;5.20;;;2.87;;
3267;SDS011;1646;52.450;13.326;2022-07-09T09:06:02;7.37;;;2.60;;
3267;SDS011;1646;52.450;13.326;2022-07-09T09:11:02;5.43;;;2.50;;
3267;SDS011;1646;52.450;13.326;2022-07-09T09:16:04;4.40;;;3.13;;
3267;SDS011;1646;52.450;13.326;2022-07-09T09:21:05;10.37;;;2.50;;
3267;SDS011;1646;52.450;13.326;2022-07-09T09:26:11;17.30;;;3.33;;
3267;SDS011;1646;52.450;13.326;2022-07-09T09:31:17;8.03;;;2.80;;
3267;SDS011;1646;52.450;13.326;2022-07-09T09:36:30;6.13;;;3.73;;
3267;SDS011;1646;52.450;13.326;2022-07-09T09:41:37;9.87;;;3.53;;
3267;SDS011;1646;52.450;13.326;2022-07-09T09:46:36;6.27;;;3.47;;
3267;SDS011;1646;52.450;13.326;2022-07-09T09:51:37;7.17;;;3.57;;
3267;SDS011;1646;52.450;13.326;2022-07-09T09:56:39;6.40;;;3.77;;
3267;SDS011;1646;52.450;13.326;2022-07-09T10:01:37;7.20;;;3.80;;
3267;SDS011;1646;52.450;13.326;2022-07-09T10:06:38;4.47;;;3.37;;
3267;SDS011;1646;52.450;13.326;2022-07-09T10:11:40;8.53;;;3.50;;
3267;SDS011;1646;52.450;13.326;2022-07-09T10:16:39;7.73;;;2.80;;
3267;SDS011;1646;52.450;13.326;2022-07-09T10:21:39;4.33;;;2.80;;
3267;SDS011;1646;52.450;13.326;2022-07-09T10:26:45;4.60;;;2.90;;
3267;SDS011;1646;52.450;13.326;2022-07-09T10:31:45;3.73;;;2.80;;
3267;SDS011;1646;52.450;13.326;2022-07-09T10:36:57;5.77;;;2.67;;
3267;SDS011;1646;52.450;13.326;2022-07-09T10:41:59;4.43;;;2.13;;
3267;SDS011;1646;52.450;13.326;2022-07-09T10:46:59;7.43;;;2.87;;
3267;SDS011;1646;52.450;13.326;2022-07-09T10:51:59;7.10;;;2.90;;
3267;SDS011;1646;52.450;13.326;2022-07-09T10:57:02;7.60;;;2.67;;
3267;SDS011;1646;52.450;13.326;2022-07-09T11:02:02;5.73;;;2.50;;
3267;SDS011;1646;52.450;13.326;2022-07-09T11:07:02;10.17;;;2.23;;
3267;SDS011;1646;52.450;13.326;2022-07-09T11:12:00;5.90;;;2.20;;
3267;SDS011;1646;52.450;13.326;2022-07-09T11:16:58;1.60;;;1.50;;
3267;SDS011;1646;52.450;13.326;2022-07-09T11:22:02;5.67;;;2.23;;
3267;SDS011;1646;52.450;13.326;2022-07-09T11:27:04;5.63;;;1.97;;
3267;SDS011;1646;52.450;13.326;2022-07-09T11:32:03;3.83;;;2.20;;
3267;SDS011;1646;52.450;13.326;2022-07-09T11:37:03;4.50;;;1.90;;
3267;SDS011;1646;52.450;13.326;2022-07-09T11:42:07;4.20;;;1.93;;
3267;SDS011;1646;52.450;13.326;2022-07-09T11:47:13;4.03;;;1.80;;
3267;SDS011;1646;52.450;13.326;2022-07-09T11:52:19;3.90;;;1.90;;
3267;SDS011;1646;52.450;13.326;2022-07-09T11:57:19;3.77;;;1.80;;
3267;SDS011;1646;52.450;13.326;2022-07-09T12:02:25;2.40;;;1.77;;
3267;SDS011;1646;52.450;13.326;2022-07-09T12:07:25;2.70;;;1.77;;
3267;SDS011;1646;52.450;13.326;2022-07-09T12:12:23;4.33;;;1.60;;
3267;SDS011;1646;52.450;13.326;2022-07-09T12:17:22;3.37;;;2.10;;
3267;SDS011;1646;52.450;13.326;2022-07-09T12:22:21;2.00;;;1.70;;
3267;SDS011;1646;52.450;13.326;2022-07-09T12:27:21;2.43;;;1.80;;
3267;SDS011;1646;52.450;13.326;2022-07-09T12:32:20;2.50;;;1.20;;
3267;SDS011;1646;52.450;13.326;2022-07-09T12:37:19;2.43;;;2.00;;
3267;SDS011;1646;52.450;13.326;2022-07-09T12:42:17;4.73;;;1.53;;
3267;SDS011;1646;52.450;13.326;2022-07-09T12:47:17;1.73;;;1.63;;
3267;SDS011;1646;52.450;13.326;2022-07-09T12:52:15;6.20;;;2.03;;
3267;SDS011;1646;52.450;13.326;2022-07-09T12:57:13;3.80;;;2.47;;
3267;SDS011;1646;52.450;13.326;2022-07-09T13:02:11;7.17;;;2.87;;
3267;SDS011;1646;52.450;13.326;2022-07-09T13:07:10;4.17;;;2.77;;
3267;SDS011;1646;52.450;13.326;2022-07-09T13:12:10;2.30;;;2.10;;
3267;SDS011;1646;52.450;13.326;2022-07-09T13:17:08;6.00;;;2.50;;
3267;SDS011;1646;52.450;13.326;2022-07-09T13:22:27;3.00;;;2.47;;
3267;SDS011;1646;52.450;13.326;2022-07-09T13:27:25;3.00;;;2.80;;
3267;SDS011;1646;52.450;13.326;2022-07-09T13:32:23;2.37;;;2.10;;
3267;SDS011;1646;52.450;13.326;2022-07-09T13:37:23;6.20;;;2.97;;
3267;SDS011;1646;52.450;13.326;2022-07-09T13:42:23;3.57;;;3.07;;
3267;SDS011;1646;52.450;13.326;2022-07-09T13:47:21;6.00;;;2.77;;
3267;SDS011;1646;52.450;13.326;2022-07-09T13:52:19;2.40;;;2.20;;
3267;SDS011;1646;52.450;13.326;2022-07-09T13:57:17;3.07;;;2.13;;
3267;SDS011;1646;52.450;13.326;2022-07-09T14:02:16;3.60;;;2.70;;
3267;SDS011;1646;52.450;13.326;2022-07-09T14:07:17;2.60;;;2.40;;
3267;SDS011;1646;52.450;13.326;2022-07-09T14:12:15;2.80;;;2.00;;
3267;SDS011;1646;52.450;13.326;2022-07-09T14:17:13;7.77;;;2.50;;
3267;SDS011;1646;52.450;13.326;2022-07-09T14:22:13;2.80;;;2.10;;
3267;SDS011;1646;52.450;13.326;2022-07-09T14:27:11;2.80;;;2.47;;
3267;SDS011;1646;52.450;13.326;2022-07-09T14:32:13;2.03;;;1.77;;
3267;SDS011;1646;52.450;13.326;2022-07-09T14:37:11;2.20;;;1.60;;
3267;SDS011;1646;52.450;13.326;2022-07-09T14:42:11;2.80;;;1.50;;
3267;SDS011;1646;52.450;13.326;2022-07-09T14:47:09;2.70;;;1.50;;
3267;SDS011;1646;52.450;13.326;2022-07-09T14:52:16;1.27;;;1.27;;
3267;SDS011;1646;52.450;13.326;2022-07-09T14:57:14;4.60;;;1.60;;
3267;SDS011;1646;52.450;13.326;2022-07-09T15:02:13;1.20;;;1.10;;
3267;SDS011;1646;52.450;13.326;2022-07-09T15:07:11;1.77;;;1.23;;
3267;SDS011;1646;52.450;13.326;2022-07-09T15:12:11;1.03;;;0.93;;
3267;SDS011;1646;52.450;13.326;2022-07-09T15:17:09;1.10;;;1.00;;
3267;SDS011;1646;52.450;13.326;2022-07-09T15:22:07;2.03;;;1.27;;
3267;SDS011;1646;52.450;13.326;2022-07-09T15:27:05;2.23;;;1.73;;
3267;SDS011;1646;52.450;13.326;2022-07-09T15:32:05;1.03;;;0.93;;
3267;SDS011;1646;52.450;13.326;2022-07-09T15:37:04;2.00;;;1.20;;
3267;SDS011;1646;52.450;13.326;2022-07-09T15:42:03;3.73;;;1.10;;
3267;SDS011;1646;52.450;13.326;2022-07-09T15:47:01;2.20;;;1.07;;
3267;SDS011;1646;52.450;13.326;2022-07-09T15:52:01;1.53;;;1.30;;
3267;SDS011;1646;52.450;13.326;2022-07-09T15:57:00;0.93;;;0.93;;
3267;SDS011;1646;52.450;13.326;2022-07-09T16:01:58;1.90;;;1.30;;
3267;SDS011;1646;52.450;13.326;2022-07-09T16:06:56;1.07;;;0.97;;
3267;SDS011;1646;52.450;13.326;2022-07-09T16:11:55;1.57;;;1.07;;
3267;SDS011;1646;52.450;13.326;2022-07-09T16:17:11;2.73;;;1.20;;
3267;SDS011;1646;52.450;13.326;2022-07-09T16:22:09;1.00;;;1.00;;
3267;SDS011;1646;52.450;13.326;2022-07-09T16:27:12;3.30;;;1.20;;
3267;SDS011;1646;52.450;13.326;2022-07-09T16:32:10;1.50;;;1.37;;
3267;SDS011;1646;52.450;13.326;2022-07-09T16:37:08;2.30;;;1.77;;
3267;SDS011;1646;52.450;13.326;2022-07-09T16:42:06;3.43;;;1.20;;
3267;SDS011;1646;52.450;13.326;2022-07-09T16:47:06;1.30;;;1.20;;
3267;SDS011;1646;52.450;13.326;2022-07-09T16:52:04;1.43;;;1.33;;
3267;SDS011;1646;52.450;13.326;2022-07-09T16:57:03;0.97;;;0.90;;
3267;SDS011;1646;52.450;13.326;2022-07-09T17:02:01;3.90;;;1.20;;
3267;SDS011;1646;52.450;13.326;2022-07-09T17:07:03;2.20;;;1.10;;
3267;SDS011;1646;52.450;13.326;2022-07-09T17:12:01;1.67;;;1.30;;
3267;SDS011;1646;52.450;13.326;2022-07-09T17:17:00;2.00;;;1.30;;
3267;SDS011;1646;52.450;13.326;2022-07-09T17:21:58;1.87;;;1.20;;
3267;SDS011;1646;52.450;13.326;2022-07-09T17:26:57;5.40;;;1.77;;
3267;SDS011;1646;52.450;13.326;2022-07-09T17:31:55;2.30;;;1.20;;
3267;SDS011;1646;52.450;13.326;2022-07-09T17:36:54;3.20;;;1.50;;
3267;SDS011;1646;52.450;13.326;2022-07-09T17:41:52;1.33;;;1.20;;
3267;SDS011;1646;52.450;13.326;2022-07-09T17:46:52;1.60;;;1.50;;
3267;SDS011;1646;52.450;13.326;2022-07-09T17:51:50;1.70;;;1.00;;
3267;SDS011;1646;52.450;13.326;2022-07-09T17:56:49;2.30;;;1.43;;
3267;SDS011;1646;52.450;13.326;2022-07-09T18:01:47;2.27;;;1.20;;
3267;SDS011;1646;52.450;13.326;2022-07-09T18:06:46;3.17;;;1.33;;
3267;SDS011;1646;52.450;13.326;2022-07-09T18:11:45;3.23;;;1.77;;
3267;SDS011;1646;52.450;13.326;2022-07-09T18:16:43;2.20;;;1.23;;
3267;SDS011;1646;52.450;13.326;2022-07-09T18:21:41;1.77;;;1.53;;
3267;SDS011;1646;52.450;13.326;2022-07-09T18:26:40;3.83;;;1.63;;
3267;SDS011;1646;52.450;13.326;2022-07-09T18:31:40;2.40;;;1.43;;
3267;SDS011;1646;52.450;13.326;2022-07-09T18:36:38;1.83;;;1.50;;
3267;SDS011;1646;52.450;13.326;2022-07-09T18:41:36;1.33;;;1.03;;
3267;SDS011;1646;52.450;13.326;2022-07-09T18:46:35;2.27;;;1.33;;
3267;SDS011;1646;52.450;13.326;2022-07-09T18:51:34;4.00;;;2.33;;
3267;SDS011;1646;52.450;13.326;2022-07-09T18:56:32;4.40;;;1.30;;
3267;SDS011;1646;52.450;13.326;2022-07-09T19:01:31;2.33;;;1.50;;
3267;SDS011;1646;52.450;13.326;2022-07-09T19:06:31;4.53;;;1.90;;
3267;SDS011;1646;52.450;13.326;2022-07-09T19:11:29;7.23;;;1.80;;
3267;SDS011;1646;52.450;13.326;2022-07-09T19:16:27;5.43;;;2.20;;
3267;SDS011;1646;52.450;13.326;2022-07-09T19:21:25;5.03;;;1.77;;
3267;SDS011;1646;52.450;13.326;2022-07-09T19:26:28;3.80;;;1.90;;
3267;SDS011;1646;52.450;13.326;2022-07-09T19:31:26;3.67;;;1.50;;
3267;SDS011;1646;52.450;13.326;2022-07-09T19:36:42;2.30;;;1.70;;
3267;SDS011;1646;52.450;13.326;2022-07-09T19:41:44;2.20;;;2.00;;
3267;SDS011;1646;52.450;13.326;2022-07-09T19:46:42;7.90;;;1.83;;
3267;SDS011;1646;52.450;13.326;2022-07-09T19:51:40;3.03;;;1.20;;
3267;SDS011;1646;52.450;13.326;2022-07-09T19:56:38;7.57;;;1.30;;
3267;SDS011;1646;52.450;13.326;2022-07-09T20:01:38;2.43;;;1.30;;
3267;SDS011;1646;52.450;13.326;2022-07-09T20:06:36;1.43;;;1.30;;
3267;SDS011;1646;52.450;13.326;2022-07-09T20:11:35;3.50;;;1.60;;
3267;SDS011;1646;52.450;13.326;2022-07-09T20:16:33;5.63;;;2.10;;
3267;SDS011;1646;52.450;13.326;2022-07-09T20:21:34;9.20;;;1.17;;
3267;SDS011;1646;52.450;13.326;2022-07-09T20:26:33;10.47;;;1.40;;
3267;SDS011;1646;52.450;13.326;2022-07-09T20:31:31;6.07;;;1.10;;
3267;SDS011;1646;52.450;13.326;2022-07-09T20:36:29;9.50;;;1.70;;
3267;SDS011;1646;52.450;13.326;2022-07-09T20:41:29;4.07;;;0.93;;
3267;SDS011;1646;52.450;13.326;2022-07-09T20:46:27;2.67;;;0.93;;
3267;SDS011;1646;52.450;13.326;2022-07-09T20:51:27;2.93;;;0.90;;
3267;SDS011;1646;52.450;13.326;2022-07-09T20:56:26;6.93;;;2.20;;
3267;SDS011;1646;52.450;13.326;2022-07-09T21:01:26;5.57;;;1.60;;
3267;SDS011;1646;52.450;13.326;2022-07-09T21:06:24;3.13;;;1.57;;
3267;SDS011;1646;52.450;13.326;2022-07-09T21:11:23;4.33;;;1.20;;
3267;SDS011;1646;52.450;13.326;2022-07-09T21:16:21;3.67;;;0.93;;
3267;SDS011;1646;52.450;13.326;2022-07-09T21:21:41;6.43;;;1.43;;
3267;SDS011;1646;52.450;13.326;2022-07-09T21:26:39;6.90;;;1.00;;
3267;SDS011;1646;52.450;13.326;2022-07-09T21:31:42;9.07;;;1.10;;
3267;SDS011;1646;52.450;13.326;2022-07-09T21:36:42;8.10;;;1.30;;
3267;SDS011;1646;52.450;13.326;2022-07-09T21:41:40;6.07;;;1.10;;
3267;SDS011;1646;52.450;13.326;2022-07-09T21:46:38;8.73;;;1.20;;
3267;SDS011;1646;52.450;13.326;2022-07-09T21:51:36;4.70;;;0.90;;
3267;SDS011;1646;52.450;13.326;2022-07-09T21:56:36;5.70;;;1.10;;
3267;SDS011;1646;52.450;13.326;2022-07-09T22:01:34;9.20;;;2.00;;
3267;SDS011;1646;52.450;13.326;2022-07-09T22:06:32;3.33;;;1.10;;
3267;SDS011;1646;52.450;13.326;2022-07-09T22:11:30;3.23;;;1.10;;
3267;SDS011;1646;52.450;13.326;2022-07-09T22:16:30;3.40;;;1.10;;
3267;SDS011;1646;52.450;13.326;2022-07-09T22:21:28;5.73;;;2.00;;
3267;SDS011;1646;52.450;13.326;2022-07-09T22:26:27;5.40;;;1.80;;
3267;SDS011;1646;52.450;13.326;2022-07-09T22:31:25;4.50;;;1.50;;
3267;SDS011;1646;52.450;13.326;2022-07-09T22:36:25;3.80;;;1.13;;
3267;SDS011;1646;52.450;13.326;2022-07-09T22:41:23;4.77;;;1.27;;
3267;SDS011;1646;52.450;13.326;2022-07-09T22:46:21;3.80;;;1.53;;
3267;SDS011;1646;52.450;13.326;2022-07-09T22:51:19;5.13;;;1.87;;
3267;SDS011;1646;52.450;13.326;2022-07-09T22:56:18;9.60;;;1.60;;
3267;SDS011;1646;52.450;13.326;2022-07-09T23:01:19;4.07;;;1.20;;
3267;SDS011;1646;52.450;13.326;2022-07-09T23:06:17;5.83;;;1.33;;
3267;SDS011;1646;52.450;13.326;2022-07-09T23:11:15;6.87;;;1.47;;
3267;SDS011;1646;52.450;13.326;2022-07-09T23:16:14;8.00;;;1.10;;
3267;SDS011;1646;52.450;13.326;2022-07-09T23:21:13;7.60;;;1.20;;
3267;SDS011;1646;52.450;13.326;2022-07-09T23:26:11;8.60;;;1.30;;
3267;SDS011;1646;52.450;13.326;2022-07-09T23:31:09;9.37;;;2.03;;
3267;SDS011;1646;52.450;13.326;2022-07-09T23:36:08;4.30;;;1.20;;
3267;SDS011;1646;52.450;13.326;2022-07-09T23:41:07;5.30;;;1.33;;
3267;SDS011;1646;52.450;13.326;2022-07-09T23:46:05;5.97;;;1.23;;
3267;SDS011;1646;52.450;13.326;2022-07-09T23:51:03;8.70;;;1.53;;
3267;SDS011;1646;52.450;13.326;2022-07-09T23:56:03;3.37;;;1.53;;
